sensor_id;sensor_type;location;lat;lon;timestamp;P1;durP1;ratioP1;P2;durP2;ratioP2
67995;SDS011;54772;53.544;49.324;2022-07-15T00:00:51;2.40;;;1.85;;
67995;SDS011;54772;53.544;49.324;2022-07-15T00:03:18;1.90;;;1.67;;
67995;SDS011;54772;53.544;49.324;2022-07-15T00:05:44;2.20;;;2.00;;
67995;SDS011;54772;53.544;49.324;2022-07-15T00:08:11;2.40;;;2.00;;
67995;SDS011;54772;53.544;49.324;2022-07-15T00:10:38;2.58;;;2.17;;
67995;SDS011;54772;53.544;49.324;2022-07-15T00:13:05;2.65;;;1.70;;
67995;SDS011;54772;53.544;49.324;2022-07-15T00:15:31;2.67;;;2.12;;
67995;SDS011;54772;53.544;49.324;2022-07-15T00:17:59;2.17;;;1.92;;
67995;SDS011;54772;53.544;49.324;2022-07-15T00:20:30;2.75;;;1.98;;
67995;SDS011;54772;53.544;49.324;2022-07-15T00:23:01;3.55;;;2.05;;
67995;SDS011;54772;53.544;49.324;2022-07-15T00:25:28;2.90;;;2.15;;
67995;SDS011;54772;53.544;49.324;2022-07-15T00:27:59;2.12;;;1.90;;
67995;SDS011;54772;53.544;49.324;2022-07-15T00:30:31;2.33;;;2.10;;
67995;SDS011;54772;53.544;49.324;2022-07-15T00:33:02;2.45;;;1.90;;
67995;SDS011;54772;53.544;49.324;2022-07-15T00:35:30;2.33;;;2.10;;
67995;SDS011;54772;53.544;49.324;2022-07-15T00:37:58;2.75;;;2.12;;
67995;SDS011;54772;53.544;49.324;2022-07-15T00:40:24;2.78;;;2.03;;
67995;SDS011;54772;53.544;49.324;2022-07-15T00:42:51;2.28;;;1.77;;
67995;SDS011;54772;53.544;49.324;2022-07-15T00:45:19;3.45;;;2.50;;
67995;SDS011;54772;53.544;49.324;2022-07-15T00:47:48;2.70;;;2.12;;
67995;SDS011;54772;53.544;49.324;2022-07-15T00:50:17;2.92;;;2.30;;
67995;SDS011;54772;53.544;49.324;2022-07-15T00:52:55;2.17;;;1.83;;
67995;SDS011;54772;53.544;49.324;2022-07-15T00:55:52;4.45;;;1.92;;
67995;SDS011;54772;53.544;49.324;2022-07-15T00:58:22;2.75;;;2.20;;
67995;SDS011;54772;53.544;49.324;2022-07-15T01:00:49;3.03;;;2.28;;
67995;SDS011;54772;53.544;49.324;2022-07-15T01:03:16;2.92;;;2.00;;
67995;SDS011;54772;53.544;49.324;2022-07-15T01:05:44;2.78;;;2.35;;
67995;SDS011;54772;53.544;49.324;2022-07-15T01:08:14;3.42;;;2.90;;
67995;SDS011;54772;53.544;49.324;2022-07-15T01:10:43;3.33;;;2.47;;
67995;SDS011;54772;53.544;49.324;2022-07-15T01:13:10;3.85;;;2.58;;
67995;SDS011;54772;53.544;49.324;2022-07-15T01:15:36;5.40;;;3.00;;
67995;SDS011;54772;53.544;49.324;2022-07-15T01:18:03;4.15;;;3.17;;
67995;SDS011;54772;53.544;49.324;2022-07-15T01:20:30;4.70;;;2.87;;
67995;SDS011;54772;53.544;49.324;2022-07-15T01:22:57;4.40;;;2.72;;
67995;SDS011;54772;53.544;49.324;2022-07-15T01:25:25;4.00;;;2.85;;
67995;SDS011;54772;53.544;49.324;2022-07-15T01:27:52;4.18;;;3.15;;
67995;SDS011;54772;53.544;49.324;2022-07-15T01:30:18;4.20;;;3.35;;
67995;SDS011;54772;53.544;49.324;2022-07-15T01:32:45;4.53;;;3.50;;
67995;SDS011;54772;53.544;49.324;2022-07-15T01:35:12;8.80;;;3.70;;
67995;SDS011;54772;53.544;49.324;2022-07-15T01:37:39;4.87;;;4.05;;
67995;SDS011;54772;53.544;49.324;2022-07-15T01:40:06;5.15;;;3.47;;
67995;SDS011;54772;53.544;49.324;2022-07-15T01:42:33;4.95;;;3.53;;
67995;SDS011;54772;53.544;49.324;2022-07-15T01:45:00;4.45;;;3.50;;
67995;SDS011;54772;53.544;49.324;2022-07-15T01:47:27;5.05;;;3.40;;
67995;SDS011;54772;53.544;49.324;2022-07-15T01:49:54;4.45;;;3.30;;
67995;SDS011;54772;53.544;49.324;2022-07-15T01:52:20;4.20;;;3.10;;
67995;SDS011;54772;53.544;49.324;2022-07-15T01:54:47;4.95;;;3.12;;
67995;SDS011;54772;53.544;49.324;2022-07-15T01:57:14;4.43;;;3.15;;
67995;SDS011;54772;53.544;49.324;2022-07-15T01:59:40;3.95;;;2.92;;
67995;SDS011;54772;53.544;49.324;2022-07-15T02:02:07;3.87;;;3.22;;
67995;SDS011;54772;53.544;49.324;2022-07-15T02:04:34;6.03;;;3.30;;
67995;SDS011;54772;53.544;49.324;2022-07-15T02:07:02;4.68;;;3.30;;
67995;SDS011;54772;53.544;49.324;2022-07-15T02:09:29;4.95;;;3.08;;
67995;SDS011;54772;53.544;49.324;2022-07-15T02:11:56;5.03;;;3.30;;
67995;SDS011;54772;53.544;49.324;2022-07-15T02:14:23;5.32;;;3.12;;
67995;SDS011;54772;53.544;49.324;2022-07-15T02:16:50;4.37;;;3.20;;
67995;SDS011;54772;53.544;49.324;2022-07-15T02:19:17;4.37;;;2.80;;
67995;SDS011;54772;53.544;49.324;2022-07-15T02:21:44;3.70;;;2.67;;
67995;SDS011;54772;53.544;49.324;2022-07-15T02:24:10;5.03;;;2.80;;
67995;SDS011;54772;53.544;49.324;2022-07-15T02:26:37;2.80;;;2.50;;
67995;SDS011;54772;53.544;49.324;2022-07-15T02:29:04;5.20;;;3.35;;
67995;SDS011;54772;53.544;49.324;2022-07-15T02:31:30;5.03;;;2.85;;
67995;SDS011;54772;53.544;49.324;2022-07-15T02:33:57;3.87;;;3.10;;
67995;SDS011;54772;53.544;49.324;2022-07-15T02:36:24;4.72;;;2.95;;
67995;SDS011;54772;53.544;49.324;2022-07-15T02:38:50;6.80;;;3.08;;
67995;SDS011;54772;53.544;49.324;2022-07-15T02:41:17;6.28;;;3.45;;
67995;SDS011;54772;53.544;49.324;2022-07-15T02:43:44;6.15;;;3.03;;
67995;SDS011;54772;53.544;49.324;2022-07-15T02:46:11;4.35;;;2.85;;
67995;SDS011;54772;53.544;49.324;2022-07-15T02:48:38;3.90;;;2.78;;
67995;SDS011;54772;53.544;49.324;2022-07-15T02:51:05;3.17;;;2.65;;
67995;SDS011;54772;53.544;49.324;2022-07-15T02:53:32;3.17;;;2.60;;
67995;SDS011;54772;53.544;49.324;2022-07-15T02:55:59;3.85;;;2.90;;
67995;SDS011;54772;53.544;49.324;2022-07-15T02:58:27;4.03;;;2.45;;
67995;SDS011;54772;53.544;49.324;2022-07-15T03:00:55;3.45;;;2.40;;
67995;SDS011;54772;53.544;49.324;2022-07-15T03:03:23;2.33;;;2.12;;
67995;SDS011;54772;53.544;49.324;2022-07-15T03:05:54;3.05;;;2.20;;
67995;SDS011;54772;53.544;49.324;2022-07-15T03:08:22;2.75;;;2.20;;
67995;SDS011;54772;53.544;49.324;2022-07-15T03:10:49;4.22;;;2.58;;
67995;SDS011;54772;53.544;49.324;2022-07-15T03:13:16;3.78;;;2.33;;
67995;SDS011;54772;53.544;49.324;2022-07-15T03:15:43;5.95;;;2.50;;
67995;SDS011;54772;53.544;49.324;2022-07-15T03:18:09;5.00;;;2.55;;
67995;SDS011;54772;53.544;49.324;2022-07-15T03:20:36;3.42;;;2.55;;
67995;SDS011;54772;53.544;49.324;2022-07-15T03:23:03;5.10;;;2.60;;
67995;SDS011;54772;53.544;49.324;2022-07-15T03:25:29;2.87;;;2.28;;
67995;SDS011;54772;53.544;49.324;2022-07-15T03:27:56;3.15;;;2.08;;
67995;SDS011;54772;53.544;49.324;2022-07-15T03:30:23;2.85;;;2.40;;
67995;SDS011;54772;53.544;49.324;2022-07-15T03:32:50;2.90;;;2.40;;
67995;SDS011;54772;53.544;49.324;2022-07-15T03:35:17;3.12;;;2.25;;
67995;SDS011;54772;53.544;49.324;2022-07-15T03:37:43;2.50;;;2.30;;
67995;SDS011;54772;53.544;49.324;2022-07-15T03:40:23;3.03;;;2.25;;
67995;SDS011;54772;53.544;49.324;2022-07-15T03:42:51;4.20;;;2.50;;
67995;SDS011;54772;53.544;49.324;2022-07-15T03:45:18;3.25;;;2.28;;
67995;SDS011;54772;53.544;49.324;2022-07-15T03:47:44;3.05;;;2.17;;
67995;SDS011;54772;53.544;49.324;2022-07-15T03:50:11;2.60;;;1.98;;
67995;SDS011;54772;53.544;49.324;2022-07-15T03:52:38;3.72;;;2.37;;
67995;SDS011;54772;53.544;49.324;2022-07-15T03:55:05;2.22;;;2.03;;
67995;SDS011;54772;53.544;49.324;2022-07-15T03:57:35;2.97;;;2.40;;
67995;SDS011;54772;53.544;49.324;2022-07-15T04:00:02;10.35;;;2.10;;
67995;SDS011;54772;53.544;49.324;2022-07-15T04:02:29;2.58;;;2.00;;
67995;SDS011;54772;53.544;49.324;2022-07-15T04:04:55;2.20;;;1.95;;
67995;SDS011;54772;53.544;49.324;2022-07-15T04:07:22;2.85;;;2.10;;
67995;SDS011;54772;53.544;49.324;2022-07-15T04:09:49;3.30;;;2.12;;
67995;SDS011;54772;53.544;49.324;2022-07-15T04:12:16;4.37;;;2.20;;
67995;SDS011;54772;53.544;49.324;2022-07-15T04:14:42;3.58;;;2.37;;
67995;SDS011;54772;53.544;49.324;2022-07-15T04:17:09;4.68;;;2.35;;
67995;SDS011;54772;53.544;49.324;2022-07-15T04:19:36;4.32;;;2.10;;
67995;SDS011;54772;53.544;49.324;2022-07-15T04:22:02;3.72;;;2.47;;
67995;SDS011;54772;53.544;49.324;2022-07-15T04:24:29;2.15;;;1.92;;
67995;SDS011;54772;53.544;49.324;2022-07-15T04:26:56;2.28;;;2.08;;
67995;SDS011;54772;53.544;49.324;2022-07-15T04:29:23;2.50;;;2.05;;
67995;SDS011;54772;53.544;49.324;2022-07-15T04:31:49;2.35;;;2.10;;
67995;SDS011;54772;53.544;49.324;2022-07-15T04:34:16;2.45;;;2.10;;
67995;SDS011;54772;53.544;49.324;2022-07-15T04:36:43;2.62;;;2.00;;
67995;SDS011;54772;53.544;49.324;2022-07-15T04:39:10;3.55;;;2.12;;
67995;SDS011;54772;53.544;49.324;2022-07-15T04:41:37;2.22;;;2.03;;
67995;SDS011;54772;53.544;49.324;2022-07-15T04:44:03;2.30;;;1.80;;
67995;SDS011;54772;53.544;49.324;2022-07-15T04:46:30;2.40;;;2.08;;
67995;SDS011;54772;53.544;49.324;2022-07-15T04:48:57;3.40;;;2.60;;
67995;SDS011;54772;53.544;49.324;2022-07-15T04:51:53;2.72;;;2.10;;
67995;SDS011;54772;53.544;49.324;2022-07-15T04:54:20;3.08;;;2.12;;
67995;SDS011;54772;53.544;49.324;2022-07-15T04:56:47;2.60;;;1.92;;
67995;SDS011;54772;53.544;49.324;2022-07-15T04:59:13;2.40;;;1.83;;
67995;SDS011;54772;53.544;49.324;2022-07-15T05:01:40;2.45;;;1.80;;
67995;SDS011;54772;53.544;49.324;2022-07-15T05:04:07;4.45;;;2.03;;
67995;SDS011;54772;53.544;49.324;2022-07-15T05:06:33;2.12;;;1.85;;
67995;SDS011;54772;53.544;49.324;2022-07-15T05:09:02;1.58;;;1.45;;
67995;SDS011;54772;53.544;49.324;2022-07-15T05:11:29;2.75;;;2.00;;
67995;SDS011;54772;53.544;49.324;2022-07-15T05:13:55;4.53;;;2.42;;
67995;SDS011;54772;53.544;49.324;2022-07-15T05:16:22;2.33;;;1.80;;
67995;SDS011;54772;53.544;49.324;2022-07-15T05:18:49;4.10;;;1.70;;
67995;SDS011;54772;53.544;49.324;2022-07-15T05:21:15;1.75;;;1.60;;
67995;SDS011;54772;53.544;49.324;2022-07-15T05:23:42;2.42;;;1.95;;
67995;SDS011;54772;53.544;49.324;2022-07-15T05:26:09;3.00;;;1.92;;
67995;SDS011;54772;53.544;49.324;2022-07-15T05:28:37;1.85;;;1.75;;
67995;SDS011;54772;53.544;49.324;2022-07-15T05:31:06;2.60;;;2.00;;
67995;SDS011;54772;53.544;49.324;2022-07-15T05:33:33;2.22;;;2.00;;
67995;SDS011;54772;53.544;49.324;2022-07-15T05:36:00;2.28;;;2.08;;
67995;SDS011;54772;53.544;49.324;2022-07-15T05:38:27;2.90;;;1.87;;
67995;SDS011;54772;53.544;49.324;2022-07-15T05:40:53;3.12;;;2.12;;
67995;SDS011;54772;53.544;49.324;2022-07-15T05:43:20;2.75;;;1.73;;
67995;SDS011;54772;53.544;49.324;2022-07-15T05:45:47;2.05;;;1.75;;
67995;SDS011;54772;53.544;49.324;2022-07-15T05:48:13;3.08;;;2.20;;
67995;SDS011;54772;53.544;49.324;2022-07-15T05:50:40;2.40;;;2.00;;
67995;SDS011;54772;53.544;49.324;2022-07-15T05:53:07;2.28;;;1.95;;
67995;SDS011;54772;53.544;49.324;2022-07-15T05:55:34;3.30;;;1.90;;
67995;SDS011;54772;53.544;49.324;2022-07-15T05:58:04;2.90;;;1.87;;
67995;SDS011;54772;53.544;49.324;2022-07-15T06:00:34;3.08;;;2.15;;
67995;SDS011;54772;53.544;49.324;2022-07-15T06:03:02;3.22;;;2.25;;
67995;SDS011;54772;53.544;49.324;2022-07-15T06:05:30;2.72;;;2.00;;
67995;SDS011;54772;53.544;49.324;2022-07-15T06:07:57;3.62;;;2.15;;
67995;SDS011;54772;53.544;49.324;2022-07-15T06:10:23;4.37;;;2.17;;
67995;SDS011;54772;53.544;49.324;2022-07-15T06:12:50;3.60;;;2.25;;
67995;SDS011;54772;53.544;49.324;2022-07-15T06:15:20;2.37;;;2.15;;
67995;SDS011;54772;53.544;49.324;2022-07-15T06:17:48;2.22;;;1.87;;
67995;SDS011;54772;53.544;49.324;2022-07-15T06:20:16;2.37;;;2.00;;
67995;SDS011;54772;53.544;49.324;2022-07-15T06:22:42;2.50;;;2.17;;
67995;SDS011;54772;53.544;49.324;2022-07-15T06:25:10;2.15;;;1.95;;
67995;SDS011;54772;53.544;49.324;2022-07-15T06:27:37;2.10;;;1.90;;
67995;SDS011;54772;53.544;49.324;2022-07-15T06:30:05;2.92;;;2.45;;
67995;SDS011;54772;53.544;49.324;2022-07-15T06:32:32;2.37;;;2.10;;
67995;SDS011;54772;53.544;49.324;2022-07-15T06:34:59;2.83;;;2.28;;
67995;SDS011;54772;53.544;49.324;2022-07-15T06:37:26;3.40;;;2.20;;
67995;SDS011;54772;53.544;49.324;2022-07-15T06:39:55;3.97;;;2.17;;
67995;SDS011;54772;53.544;49.324;2022-07-15T06:42:22;3.42;;;1.92;;
67995;SDS011;54772;53.544;49.324;2022-07-15T06:44:49;3.30;;;2.05;;
67995;SDS011;54772;53.544;49.324;2022-07-15T06:47:16;2.75;;;2.03;;
67995;SDS011;54772;53.544;49.324;2022-07-15T06:49:42;2.20;;;2.00;;
67995;SDS011;54772;53.544;49.324;2022-07-15T06:52:09;3.80;;;2.22;;
67995;SDS011;54772;53.544;49.324;2022-07-15T06:54:36;2.78;;;2.20;;
67995;SDS011;54772;53.544;49.324;2022-07-15T06:57:16;2.15;;;1.95;;
67995;SDS011;54772;53.544;49.324;2022-07-15T06:59:43;4.30;;;2.25;;
67995;SDS011;54772;53.544;49.324;2022-07-15T07:02:10;2.78;;;1.92;;
67995;SDS011;54772;53.544;49.324;2022-07-15T07:04:37;1.90;;;1.80;;
67995;SDS011;54772;53.544;49.324;2022-07-15T07:07:03;2.90;;;2.25;;
67995;SDS011;54772;53.544;49.324;2022-07-15T07:09:30;2.92;;;2.05;;
67995;SDS011;54772;53.544;49.324;2022-07-15T07:11:57;2.50;;;2.30;;
67995;SDS011;54772;53.544;49.324;2022-07-15T07:14:24;2.17;;;1.98;;
67995;SDS011;54772;53.544;49.324;2022-07-15T07:16:51;2.40;;;2.00;;
67995;SDS011;54772;53.544;49.324;2022-07-15T07:19:18;2.78;;;2.20;;
67995;SDS011;54772;53.544;49.324;2022-07-15T07:21:44;2.90;;;2.25;;
67995;SDS011;54772;53.544;49.324;2022-07-15T07:24:11;3.20;;;2.20;;
67995;SDS011;54772;53.544;49.324;2022-07-15T07:26:38;2.85;;;2.00;;
67995;SDS011;54772;53.544;49.324;2022-07-15T07:29:05;2.25;;;2.00;;
67995;SDS011;54772;53.544;49.324;2022-07-15T07:31:31;2.35;;;2.12;;
67995;SDS011;54772;53.544;49.324;2022-07-15T07:33:58;2.50;;;2.30;;
67995;SDS011;54772;53.544;49.324;2022-07-15T07:36:26;2.35;;;1.98;;
67995;SDS011;54772;53.544;49.324;2022-07-15T07:38:53;2.92;;;2.00;;
67995;SDS011;54772;53.544;49.324;2022-07-15T07:41:23;3.83;;;2.10;;
67995;SDS011;54772;53.544;49.324;2022-07-15T07:43:49;2.00;;;1.80;;
67995;SDS011;54772;53.544;49.324;2022-07-15T07:46:16;1.83;;;1.73;;
67995;SDS011;54772;53.544;49.324;2022-07-15T07:48:43;2.92;;;2.10;;
67995;SDS011;54772;53.544;49.324;2022-07-15T07:51:10;2.15;;;1.95;;
67995;SDS011;54772;53.544;49.324;2022-07-15T07:53:36;3.33;;;2.28;;
67995;SDS011;54772;53.544;49.324;2022-07-15T07:56:03;2.67;;;2.03;;
67995;SDS011;54772;53.544;49.324;2022-07-15T07:58:30;2.65;;;2.00;;
67995;SDS011;54772;53.544;49.324;2022-07-15T08:00:57;4.22;;;2.10;;
67995;SDS011;54772;53.544;49.324;2022-07-15T08:03:24;2.47;;;2.20;;
67995;SDS011;54772;53.544;49.324;2022-07-15T08:05:53;4.30;;;2.40;;
67995;SDS011;54772;53.544;49.324;2022-07-15T08:08:20;3.22;;;2.40;;
67995;SDS011;54772;53.544;49.324;2022-07-15T08:10:49;2.70;;;2.10;;
67995;SDS011;54772;53.544;49.324;2022-07-15T08:13:19;3.00;;;2.30;;
67995;SDS011;54772;53.544;49.324;2022-07-15T08:15:47;2.42;;;2.20;;
67995;SDS011;54772;53.544;49.324;2022-07-15T08:18:17;5.10;;;2.20;;
67995;SDS011;54772;53.544;49.324;2022-07-15T08:20:47;3.42;;;2.60;;
67995;SDS011;54772;53.544;49.324;2022-07-15T08:23:14;2.47;;;2.17;;
67995;SDS011;54772;53.544;49.324;2022-07-15T08:25:46;2.83;;;2.30;;
67995;SDS011;54772;53.544;49.324;2022-07-15T08:28:14;3.25;;;2.55;;
67995;SDS011;54772;53.544;49.324;2022-07-15T08:30:41;3.90;;;2.40;;
67995;SDS011;54772;53.544;49.324;2022-07-15T08:33:08;3.17;;;2.30;;
67995;SDS011;54772;53.544;49.324;2022-07-15T08:35:35;2.42;;;2.22;;
67995;SDS011;54772;53.544;49.324;2022-07-15T08:38:05;2.80;;;2.30;;
67995;SDS011;54772;53.544;49.324;2022-07-15T08:40:36;5.28;;;2.50;;
67995;SDS011;54772;53.544;49.324;2022-07-15T08:43:10;4.00;;;2.60;;
67995;SDS011;54772;53.544;49.324;2022-07-15T08:45:37;2.60;;;2.40;;
67995;SDS011;54772;53.544;49.324;2022-07-15T08:48:06;2.75;;;2.05;;
67995;SDS011;54772;53.544;49.324;2022-07-15T08:50:34;2.78;;;2.42;;
67995;SDS011;54772;53.544;49.324;2022-07-15T08:53:02;3.80;;;2.20;;
67995;SDS011;54772;53.544;49.324;2022-07-15T08:55:29;4.32;;;2.53;;
67995;SDS011;54772;53.544;49.324;2022-07-15T08:57:56;4.30;;;2.53;;
67995;SDS011;54772;53.544;49.324;2022-07-15T09:00:23;4.15;;;2.55;;
67995;SDS011;54772;53.544;49.324;2022-07-15T09:03:00;2.60;;;2.30;;
67995;SDS011;54772;53.544;49.324;2022-07-15T09:08:08;2.58;;;2.30;;
67995;SDS011;54772;53.544;49.324;2022-07-15T09:13:08;3.37;;;2.50;;
67995;SDS011;54772;53.544;49.324;2022-07-15T09:15:37;3.90;;;2.67;;
67995;SDS011;54772;53.544;49.324;2022-07-15T09:18:16;3.12;;;2.55;;
67995;SDS011;54772;53.544;49.324;2022-07-15T09:20:47;5.40;;;2.62;;
67995;SDS011;54772;53.544;49.324;2022-07-15T09:23:16;2.80;;;2.47;;
67995;SDS011;54772;53.544;49.324;2022-07-15T09:25:49;3.45;;;2.55;;
67995;SDS011;54772;53.544;49.324;2022-07-15T09:28:16;4.60;;;2.50;;
67995;SDS011;54772;53.544;49.324;2022-07-15T09:30:45;3.35;;;2.60;;
67995;SDS011;54772;53.544;49.324;2022-07-15T09:33:34;2.78;;;2.30;;
67995;SDS011;54772;53.544;49.324;2022-07-15T09:43:48;4.10;;;3.00;;
67995;SDS011;54772;53.544;49.324;2022-07-15T09:46:17;5.87;;;3.22;;
67995;SDS011;54772;53.544;49.324;2022-07-15T09:48:45;5.03;;;2.85;;
67995;SDS011;54772;53.544;49.324;2022-07-15T09:51:13;3.95;;;2.40;;
67995;SDS011;54772;53.544;49.324;2022-07-15T09:53:40;2.75;;;2.55;;
67995;SDS011;54772;53.544;49.324;2022-07-15T09:56:09;3.58;;;2.55;;
67995;SDS011;54772;53.544;49.324;2022-07-15T09:58:38;4.12;;;2.70;;
67995;SDS011;54772;53.544;49.324;2022-07-15T10:01:07;3.05;;;2.42;;
67995;SDS011;54772;53.544;49.324;2022-07-15T10:03:35;3.65;;;2.58;;
67995;SDS011;54772;53.544;49.324;2022-07-15T10:06:02;6.50;;;3.00;;
67995;SDS011;54772;53.544;49.324;2022-07-15T10:08:30;4.00;;;2.70;;
67995;SDS011;54772;53.544;49.324;2022-07-15T10:10:58;5.72;;;3.30;;
67995;SDS011;54772;53.544;49.324;2022-07-15T10:13:31;6.87;;;2.62;;
67995;SDS011;54772;53.544;49.324;2022-07-15T10:19:23;4.07;;;3.00;;
67995;SDS011;54772;53.544;49.324;2022-07-15T10:22:12;3.30;;;3.00;;
67995;SDS011;54772;53.544;49.324;2022-07-15T10:24:55;4.05;;;2.83;;
67995;SDS011;54772;53.544;49.324;2022-07-15T10:27:46;4.22;;;2.67;;
67995;SDS011;54772;53.544;49.324;2022-07-15T10:30:21;4.03;;;2.90;;
67995;SDS011;54772;53.544;49.324;2022-07-15T10:35:48;4.82;;;2.80;;
67995;SDS011;54772;53.544;49.324;2022-07-15T10:48:42;4.65;;;3.25;;
67995;SDS011;54772;53.544;49.324;2022-07-15T10:51:13;2.90;;;2.60;;
67995;SDS011;54772;53.544;49.324;2022-07-15T10:54:09;6.57;;;3.00;;
67995;SDS011;54772;53.544;49.324;2022-07-15T10:56:45;6.70;;;3.30;;
67995;SDS011;54772;53.544;49.324;2022-07-15T10:59:17;5.78;;;3.22;;
67995;SDS011;54772;53.544;49.324;2022-07-15T11:01:49;3.03;;;2.58;;
67995;SDS011;54772;53.544;49.324;2022-07-15T11:04:23;4.40;;;3.00;;
67995;SDS011;54772;53.544;49.324;2022-07-15T11:07:37;6.40;;;2.92;;
67995;SDS011;54772;53.544;49.324;2022-07-15T11:09:45;3.60;;;2.90;;
67995;SDS011;54772;53.544;49.324;2022-07-15T11:12:17;3.25;;;2.90;;
67995;SDS011;54772;53.544;49.324;2022-07-15T11:17:27;4.03;;;3.28;;
67995;SDS011;54772;53.544;49.324;2022-07-15T11:20:08;4.72;;;3.15;;
67995;SDS011;54772;53.544;49.324;2022-07-15T11:22:40;6.03;;;2.92;;
67995;SDS011;54772;53.544;49.324;2022-07-15T11:25:20;4.68;;;3.00;;
67995;SDS011;54772;53.544;49.324;2022-07-15T11:28:11;4.45;;;3.05;;
67995;SDS011;54772;53.544;49.324;2022-07-15T11:30:43;4.80;;;2.97;;
67995;SDS011;54772;53.544;49.324;2022-07-15T11:33:20;3.42;;;3.00;;
67995;SDS011;54772;53.544;49.324;2022-07-15T11:35:55;4.12;;;2.87;;
67995;SDS011;54772;53.544;49.324;2022-07-15T11:38:24;3.92;;;2.80;;
67995;SDS011;54772;53.544;49.324;2022-07-15T11:40:57;4.35;;;3.37;;
67995;SDS011;54772;53.544;49.324;2022-07-15T11:43:43;4.15;;;3.20;;
67995;SDS011;54772;53.544;49.324;2022-07-15T11:46:29;6.28;;;3.53;;
67995;SDS011;54772;53.544;49.324;2022-07-15T11:48:57;3.72;;;3.25;;
67995;SDS011;54772;53.544;49.324;2022-07-15T11:51:29;5.18;;;3.33;;
67995;SDS011;54772;53.544;49.324;2022-07-15T11:53:56;4.25;;;3.28;;
67995;SDS011;54772;53.544;49.324;2022-07-15T11:56:23;3.65;;;3.00;;
67995;SDS011;54772;53.544;49.324;2022-07-15T11:58:52;3.80;;;3.15;;
67995;SDS011;54772;53.544;49.324;2022-07-15T12:01:21;4.80;;;3.40;;
67995;SDS011;54772;53.544;49.324;2022-07-15T12:03:50;5.37;;;3.10;;
67995;SDS011;54772;53.544;49.324;2022-07-15T12:06:22;4.37;;;3.17;;
67995;SDS011;54772;53.544;49.324;2022-07-15T12:08:54;3.50;;;3.20;;
67995;SDS011;54772;53.544;49.324;2022-07-15T12:11:29;3.78;;;3.22;;
67995;SDS011;54772;53.544;49.324;2022-07-15T12:14:08;4.47;;;3.15;;
67995;SDS011;54772;53.544;49.324;2022-07-15T12:16:40;5.43;;;3.60;;
67995;SDS011;54772;53.544;49.324;2022-07-15T12:19:09;4.40;;;3.47;;
67995;SDS011;54772;53.544;49.324;2022-07-15T12:21:38;4.35;;;3.40;;
67995;SDS011;54772;53.544;49.324;2022-07-15T12:27:01;5.20;;;3.53;;
67995;SDS011;54772;53.544;49.324;2022-07-15T12:29:28;4.70;;;3.42;;
67995;SDS011;54772;53.544;49.324;2022-07-15T12:32:04;4.70;;;3.45;;
67995;SDS011;54772;53.544;49.324;2022-07-15T12:37:25;4.32;;;3.25;;
67995;SDS011;54772;53.544;49.324;2022-07-15T12:39:58;4.72;;;3.70;;
67995;SDS011;54772;53.544;49.324;2022-07-15T12:42:29;7.75;;;3.55;;
67995;SDS011;54772;53.544;49.324;2022-07-15T12:45:14;5.22;;;3.60;;
67995;SDS011;54772;53.544;49.324;2022-07-15T12:50:32;5.85;;;3.70;;
67995;SDS011;54772;53.544;49.324;2022-07-15T12:53:17;4.27;;;3.50;;
67995;SDS011;54772;53.544;49.324;2022-07-15T12:55:46;6.90;;;3.17;;
67995;SDS011;54772;53.544;49.324;2022-07-15T12:58:15;3.47;;;3.00;;
67995;SDS011;54772;53.544;49.324;2022-07-15T13:00:44;4.50;;;3.17;;
67995;SDS011;54772;53.544;49.324;2022-07-15T13:03:13;6.10;;;2.95;;
67995;SDS011;54772;53.544;49.324;2022-07-15T13:05:42;3.62;;;2.70;;
67995;SDS011;54772;53.544;49.324;2022-07-15T13:08:14;3.85;;;2.90;;
67995;SDS011;54772;53.544;49.324;2022-07-15T13:11:02;4.37;;;3.20;;
67995;SDS011;54772;53.544;49.324;2022-07-15T13:13:31;4.45;;;3.15;;
67995;SDS011;54772;53.544;49.324;2022-07-15T13:16:01;7.93;;;3.35;;
67995;SDS011;54772;53.544;49.324;2022-07-15T13:18:29;3.75;;;3.10;;
67995;SDS011;54772;53.544;49.324;2022-07-15T13:20:56;3.83;;;2.78;;
67995;SDS011;54772;53.544;49.324;2022-07-15T13:23:23;4.82;;;3.33;;
67995;SDS011;54772;53.544;49.324;2022-07-15T13:25:51;4.60;;;3.17;;
67995;SDS011;54772;53.544;49.324;2022-07-15T13:28:19;3.47;;;2.67;;
67995;SDS011;54772;53.544;49.324;2022-07-15T13:30:47;3.35;;;2.83;;
67995;SDS011;54772;53.544;49.324;2022-07-15T13:33:14;3.87;;;2.90;;
67995;SDS011;54772;53.544;49.324;2022-07-15T13:35:41;4.75;;;3.33;;
67995;SDS011;54772;53.544;49.324;2022-07-15T13:38:08;9.57;;;3.40;;
67995;SDS011;54772;53.544;49.324;2022-07-15T13:40:35;3.37;;;2.83;;
67995;SDS011;54772;53.544;49.324;2022-07-15T13:43:02;3.45;;;2.78;;
67995;SDS011;54772;53.544;49.324;2022-07-15T13:45:29;5.28;;;3.45;;
67995;SDS011;54772;53.544;49.324;2022-07-15T13:47:56;4.05;;;2.95;;
67995;SDS011;54772;53.544;49.324;2022-07-15T13:50:23;3.75;;;3.30;;
67995;SDS011;54772;53.544;49.324;2022-07-15T13:53:08;3.73;;;3.00;;
67995;SDS011;54772;53.544;49.324;2022-07-15T13:55:35;7.03;;;3.12;;
67995;SDS011;54772;53.544;49.324;2022-07-15T13:58:04;3.60;;;3.10;;
67995;SDS011;54772;53.544;49.324;2022-07-15T14:00:31;5.43;;;3.25;;
67995;SDS011;54772;53.544;49.324;2022-07-15T14:03:01;4.12;;;3.20;;
67995;SDS011;54772;53.544;49.324;2022-07-15T14:05:27;3.37;;;2.80;;
67995;SDS011;54772;53.544;49.324;2022-07-15T14:07:54;3.90;;;2.87;;
67995;SDS011;54772;53.544;49.324;2022-07-15T14:10:21;3.70;;;3.30;;
67995;SDS011;54772;53.544;49.324;2022-07-15T14:12:48;4.72;;;3.25;;
67995;SDS011;54772;53.544;49.324;2022-07-15T14:15:16;3.67;;;3.10;;
67995;SDS011;54772;53.544;49.324;2022-07-15T14:17:43;4.22;;;3.35;;
67995;SDS011;54772;53.544;49.324;2022-07-15T14:20:10;4.40;;;3.40;;
67995;SDS011;54772;53.544;49.324;2022-07-15T14:22:39;4.30;;;3.47;;
67995;SDS011;54772;53.544;49.324;2022-07-15T14:25:06;5.87;;;3.62;;
67995;SDS011;54772;53.544;49.324;2022-07-15T14:27:34;5.60;;;3.33;;
67995;SDS011;54772;53.544;49.324;2022-07-15T14:30:01;3.95;;;3.55;;
67995;SDS011;54772;53.544;49.324;2022-07-15T14:32:28;6.80;;;3.40;;
67995;SDS011;54772;53.544;49.324;2022-07-15T14:34:55;5.12;;;3.65;;
67995;SDS011;54772;53.544;49.324;2022-07-15T14:37:22;5.75;;;3.58;;
67995;SDS011;54772;53.544;49.324;2022-07-15T14:39:49;5.07;;;3.30;;
67995;SDS011;54772;53.544;49.324;2022-07-15T14:42:16;5.47;;;3.25;;
67995;SDS011;54772;53.544;49.324;2022-07-15T14:44:43;5.20;;;3.60;;
67995;SDS011;54772;53.544;49.324;2022-07-15T14:47:09;5.40;;;3.20;;
67995;SDS011;54772;53.544;49.324;2022-07-15T14:49:36;5.80;;;3.60;;
67995;SDS011;54772;53.544;49.324;2022-07-15T14:52:03;4.22;;;3.33;;
67995;SDS011;54772;53.544;49.324;2022-07-15T14:54:30;5.78;;;3.28;;
67995;SDS011;54772;53.544;49.324;2022-07-15T14:56:57;6.28;;;3.35;;
67995;SDS011;54772;53.544;49.324;2022-07-15T14:59:23;4.15;;;3.40;;
67995;SDS011;54772;53.544;49.324;2022-07-15T15:01:50;6.72;;;3.90;;
67995;SDS011;54772;53.544;49.324;2022-07-15T15:04:18;5.15;;;3.70;;
67995;SDS011;54772;53.544;49.324;2022-07-15T15:06:45;4.25;;;3.50;;
67995;SDS011;54772;53.544;49.324;2022-07-15T15:09:12;4.28;;;3.17;;
67995;SDS011;54772;53.544;49.324;2022-07-15T15:11:39;4.18;;;2.95;;
67995;SDS011;54772;53.544;49.324;2022-07-15T15:14:06;4.12;;;3.50;;
67995;SDS011;54772;53.544;49.324;2022-07-15T15:16:32;6.30;;;3.65;;
67995;SDS011;54772;53.544;49.324;2022-07-15T15:18:59;4.30;;;3.20;;
67995;SDS011;54772;53.544;49.324;2022-07-15T15:21:26;4.55;;;3.90;;
67995;SDS011;54772;53.544;49.324;2022-07-15T15:23:53;7.22;;;3.55;;